Time;durP1;ratioP1;P1;durP2;ratioP2;P2;SDS_P1;SDS_P2;PMS_P1;PMS_P2;Temp;Humidity;BMP_temperature;BMP_pressure;BME280_temperature;BME280_humidity;BME280_pressure;Samples;Min_cycle;Max_cycle;Signal;HPM_P1;HPM_P2
2022/11/13 00:01:11;;;;;;;6.63;4.63;;;6.60;99.90;;;;;;5118422;28;20412;-58
2022/11/13 00:03:38;;;;;;;7.47;6.22;;;6.60;99.90;;;;;;5129343;27;21412;-57
2022/11/13 00:06:07;;;;;;;8.25;6.10;;;6.60;99.90;;;;;;5138266;27;20410;-57
2022/11/13 00:08:34;;;;;;;6.90;4.75;;;6.60;99.90;;;;;;5138256;27;20763;-56
2022/11/13 00:11:02;;;;;;;6.88;6.18;;;6.60;99.90;;;;;;5138858;27;20431;-57
2022/11/13 00:13:29;;;;;;;6.40;5.80;;;6.60;99.90;;;;;;5136716;27;20563;-58
2022/11/13 00:15:58;;;;;;;6.67;5.47;;;6.60;99.90;;;;;;5138883;27;20403;-57
2022/11/13 00:18:25;;;;;;;5.93;4.75;;;6.50;99.90;;;;;;5138445;27;20448;-57
2022/11/13 00:20:52;;;;;;;5.10;4.55;;;6.40;99.90;;;;;;5134125;27;20434;-58
2022/11/13 00:23:20;;;;;;;5.10;4.15;;;6.50;99.90;;;;;;5118104;28;20481;-57
2022/11/13 00:25:47;;;;;;;7.40;5.35;;;6.60;99.90;;;;;;5117304;28;20461;-58
2022/11/13 00:28:15;;;;;;;6.85;6.15;;;6.70;99.90;;;;;;5117444;28;21252;-57
2022/11/13 00:30:42;;;;;;;8.65;6.30;;;6.70;99.90;;;;;;5120712;27;20835;-57
2022/11/13 00:33:09;;;;;;;5.25;4.75;;;6.70;99.90;;;;;;5117517;28;20489;-56
2022/11/13 00:35:36;;;;;;;6.20;4.60;;;6.50;99.90;;;;;;5117047;28;20420;-57
2022/11/13 00:38:03;;;;;;;5.25;4.03;;;6.40;99.90;;;;;;5116930;28;20428;-57
2022/11/13 00:40:31;;;;;;;6.43;4.70;;;6.40;99.90;;;;;;5122527;27;20911;-56
2022/11/13 00:42:58;;;;;;;4.72;3.80;;;6.40;99.90;;;;;;5118021;28;20477;-57
2022/11/13 00:45:25;;;;;;;4.10;3.75;;;6.40;99.90;;;;;;5117969;28;20412;-57
2022/11/13 00:47:52;;;;;;;5.35;4.75;;;6.30;99.90;;;;;;5122379;27;20426;-57
2022/11/13 00:50:19;;;;;;;5.90;4.50;;;6.40;99.90;;;;;;5137709;27;20466;-57
2022/11/13 00:52:46;;;;;;;7.78;5.35;;;6.40;99.90;;;;;;5138060;27;20438;-58
2022/11/13 00:55:13;;;;;;;7.20;5.80;;;6.30;99.90;;;;;;5138000;27;20767;-57
2022/11/13 00:57:41;;;;;;;8.20;5.82;;;6.30;99.90;;;;;;5136750;27;20426;-57
2022/11/13 01:00:10;;;;;;;4.63;4.00;;;6.10;99.90;;;;;;5117462;28;20412;-57
2022/11/13 01:02:37;;;;;;;7.10;4.65;;;6.10;99.90;;;;;;5116650;28;20420;-58
2022/11/13 01:05:04;;;;;;;5.28;4.78;;;6.00;99.90;;;;;;5117617;28;20404;-57
2022/11/13 01:07:31;;;;;;;5.55;4.53;;;6.00;99.90;;;;;;5129568;27;20479;-57
2022/11/13 01:09:59;;;;;;;5.78;5.18;;;6.00;99.90;;;;;;5135279;27;20426;-59
2022/11/13 01:12:26;;;;;;;5.25;4.20;;;6.00;99.90;;;;;;5135233;27;20430;-57
2022/11/13 01:14:55;;;;;;;4.68;4.10;;;5.90;99.90;;;;;;5135872;27;20467;-57
2022/11/13 01:17:22;;;;;;;4.97;3.70;;;5.90;99.90;;;;;;5134959;27;20499;-57
2022/11/13 01:19:49;;;;;;;5.75;3.97;;;6.00;99.90;;;;;;5135845;27;20590;-54
2022/11/13 01:22:16;;;;;;;3.50;3.00;;;6.00;99.90;;;;;;5136168;27;20426;-57
2022/11/13 01:24:43;;;;;;;5.00;3.30;;;6.10;99.90;;;;;;5135865;27;20484;-57
2022/11/13 01:27:12;;;;;;;4.35;3.53;;;6.20;99.90;;;;;;5116448;27;20696;-57
2022/11/13 01:29:39;;;;;;;4.68;3.55;;;6.20;99.90;;;;;;5115956;28;20447;-56
2022/11/13 01:32:07;;;;;;;6.20;4.50;;;6.20;99.90;;;;;;5115896;28;20851;-57
2022/11/13 01:34:34;;;;;;;6.20;4.60;;;6.30;99.90;;;;;;5127332;27;20832;-57
2022/11/13 01:37:01;;;;;;;6.90;5.00;;;6.30;99.90;;;;;;5136361;27;20467;-57
2022/11/13 01:39:28;;;;;;;6.53;4.68;;;6.30;99.90;;;;;;5136638;27;20419;-62
2022/11/13 01:41:55;;;;;;;6.28;5.03;;;6.30;99.90;;;;;;5137031;27;20894;-57
2022/11/13 01:44:22;;;;;;;6.75;5.20;;;6.40;99.90;;;;;;5136608;27;20480;-57
2022/11/13 01:46:52;;;;;;;6.25;5.65;;;6.40;99.90;;;;;;5137209;27;20427;-58
2022/11/13 01:49:28;;;;;;;7.87;7.17;;;6.40;99.90;;;;;;5136855;27;20479;-56
2022/11/13 01:51:58;;;;;;;7.82;7.03;;;6.40;99.90;;;;;;5133705;27;20853;-56
2022/11/13 01:54:28;;;;;;;9.40;7.37;;;6.40;99.90;;;;;;5116117;28;20428;-57
2022/11/13 01:56:56;;;;;;;7.25;6.55;;;6.30;99.90;;;;;;5116870;28;20529;-56
2022/11/13 01:59:26;;;;;;;5.50;4.97;;;6.20;99.90;;;;;;5116395;28;20436;-55
2022/11/13 02:01:55;;;;;;;4.70;4.00;;;6.20;99.90;;;;;;5122745;27;20415;-57
2022/11/13 02:04:24;;;;;;;4.97;3.47;;;6.10;99.90;;;;;;5136691;27;20471;-57
2022/11/13 02:06:56;;;;;;;5.32;3.70;;;6.00;99.90;;;;;;5136621;27;20467;-57
2022/11/13 02:09:28;;;;;;;3.75;2.60;;;6.00;99.90;;;;;;5135642;27;20415;-57
2022/11/13 02:11:55;;;;;;;4.13;3.22;;;6.00;99.90;;;;;;5130296;27;20906;-55
2022/11/13 02:14:25;;;;;;;4.88;3.90;;;5.80;99.90;;;;;;5136187;27;20467;-57
2022/11/13 02:16:56;;;;;;;6.97;5.83;;;5.70;99.90;;;;;;5136727;27;20495;-57
2022/11/13 02:19:29;;;;;;;7.22;5.50;;;5.50;99.90;;;;;;5133934;27;20422;-58
2022/11/13 02:22:04;;;;;;;5.60;4.40;;;5.50;99.90;;;;;;5116210;28;20408;-57
2022/11/13 02:24:34;;;;;;;5.00;3.17;;;5.50;99.90;;;;;;5115975;28;20839;-57
2022/11/13 02:27:05;;;;;;;3.30;3.00;;;5.50;99.90;;;;;;5115694;28;20420;-56
2022/11/13 02:29:32;;;;;;;3.65;2.55;;;5.50;99.90;;;;;;5127344;27;20479;-58
2022/11/13 02:31:59;;;;;;;5.15;4.30;;;5.50;99.90;;;;;;5136156;27;20426;-57
2022/11/13 02:34:26;;;;;;;5.30;4.65;;;5.40;99.90;;;;;;5136390;27;20472;-58
2022/11/13 02:36:53;;;;;;;3.95;3.45;;;5.30;99.90;;;;;;5136230;27;20414;-57
2022/11/13 02:39:20;;;;;;;4.68;3.50;;;5.20;99.90;;;;;;5135089;27;20422;-57
2022/11/13 02:41:48;;;;;;;4.63;3.60;;;5.30;99.90;;;;;;5136110;28;20410;-57
2022/11/13 02:44:15;;;;;;;3.85;3.13;;;5.30;99.90;;;;;;5136168;27;20448;-56
2022/11/13 02:46:42;;;;;;;3.58;3.13;;;5.30;99.90;;;;;;5135124;28;20426;-57
2022/11/13 02:49:09;;;;;;;5.07;3.40;;;5.40;99.90;;;;;;5134727;28;20434;-57
2022/11/13 02:51:36;;;;;;;3.10;2.60;;;5.40;99.90;;;;;;5135660;28;20463;-55
2022/11/13 02:54:04;;;;;;;3.00;2.38;;;5.40;99.90;;;;;;5136273;28;20422;-58
2022/11/13 02:56:31;;;;;;;3.33;2.30;;;5.40;99.90;;;;;;5128780;28;20522;-57
2022/11/13 02:58:59;;;;;;;3.53;2.90;;;5.40;99.90;;;;;;5115823;28;20496;-57
2022/11/13 03:01:26;;;;;;;4.45;3.63;;;5.30;99.90;;;;;;5115499;28;20408;-58
2022/11/13 03:03:53;;;;;;;8.20;5.70;;;5.40;99.90;;;;;;5115317;28;20416;-56
2022/11/13 03:06:20;;;;;;;5.13;4.40;;;5.30;99.90;;;;;;5123425;28;20475;-58
2022/11/13 03:08:47;;;;;;;6.27;4.83;;;5.40;99.90;;;;;;5135187;28;20426;-58
2022/11/13 03:11:14;;;;;;;6.63;5.68;;;5.40;99.90;;;;;;5135574;28;20415;-57
2022/11/13 03:13:41;;;;;;;6.40;5.70;;;5.40;99.90;;;;;;5136030;28;20434;-58
2022/11/13 03:16:12;;;;;;;5.95;5.40;;;5.40;99.90;;;;;;5131102;28;20426;-58
2022/11/13 03:18:39;;;;;;;10.55;8.00;;;5.40;99.90;;;;;;5135963;27;20845;-58
2022/11/13 03:21:08;;;;;;;11.90;9.20;;;5.30;99.90;;;;;;5137983;27;20546;-58
2022/11/13 03:23:35;;;;;;;11.18;9.15;;;5.20;99.90;;;;;;5135149;27;20431;-56
2022/11/13 03:26:06;;;;;;;11.32;9.30;;;5.10;99.90;;;;;;5139285;27;20422;-57
2022/11/13 03:28:34;;;;;;;9.90;8.90;;;5.10;99.90;;;;;;5139948;27;20426;-57
2022/11/13 03:31:01;;;;;;;13.25;9.13;;;5.10;99.90;;;;;;5140179;27;20410;-56
2022/11/13 03:33:30;;;;;;;11.77;8.93;;;5.00;99.90;;;;;;5139149;27;20431;-56
2022/11/13 03:35:57;;;;;;;11.32;8.63;;;4.90;99.90;;;;;;5139545;27;20467;-57
2022/11/13 03:38:24;;;;;;;10.00;8.90;;;4.90;99.90;;;;;;5139807;27;20423;-56
2022/11/13 03:40:51;;;;;;;11.33;9.87;;;4.80;99.90;;;;;;5140021;27;20514;-57
2022/11/13 03:43:19;;;;;;;12.38;8.85;;;4.60;99.90;;;;;;5138013;27;20423;-57
2022/11/13 03:45:47;;;;;;;10.52;8.50;;;4.50;99.90;;;;;;5138634;27;20437;-56
2022/11/13 03:48:15;;;;;;;13.07;9.75;;;4.70;99.90;;;;;;5138924;27;20434;-55
2022/11/13 03:50:45;;;;;;;10.73;8.90;;;4.70;99.90;;;;;;5135401;27;20871;-55
2022/11/13 03:53:13;;;;;;;14.23;10.60;;;4.80;99.90;;;;;;5118226;28;20440;-57
2022/11/13 03:55:41;;;;;;;11.35;9.43;;;4.70;99.90;;;;;;5118645;28;20473;-57
2022/11/13 03:58:08;;;;;;;16.77;11.27;;;4.60;99.90;;;;;;5118928;28;20424;-56
2022/11/13 04:00:35;;;;;;;12.90;9.88;;;4.60;99.90;;;;;;5124381;27;20422;-57
2022/11/13 04:03:02;;;;;;;13.55;9.70;;;4.60;99.90;;;;;;5138685;27;20415;-57
2022/11/13 04:05:29;;;;;;;14.13;9.88;;;4.60;99.90;;;;;;5138711;27;20464;-57
2022/11/13 04:07:57;;;;;;;14.98;10.40;;;4.70;99.90;;;;;;5138951;27;20422;-55
2022/11/13 04:10:24;;;;;;;10.87;9.40;;;4.90;99.90;;;;;;5125083;27;20469;-55
2022/11/13 04:12:51;;;;;;;12.18;10.00;;;4.90;99.90;;;;;;5118441;28;20481;-57
2022/11/13 04:15:18;;;;;;;11.50;9.73;;;4.90;99.90;;;;;;5117963;28;20473;-57
2022/11/13 04:17:45;;;;;;;12.00;8.82;;;5.00;99.90;;;;;;5119219;27;20425;-57
2022/11/13 04:20:12;;;;;;;12.38;8.43;;;5.10;99.90;;;;;;5138753;27;20474;-57
2022/11/13 04:22:40;;;;;;;9.85;8.25;;;5.20;99.90;;;;;;5138481;27;20422;-57
2022/11/13 04:25:08;;;;;;;11.37;8.30;;;5.20;99.90;;;;;;5138468;27;20501;-57
2022/11/13 04:27:36;;;;;;;7.90;5.50;;;5.30;99.90;;;;;;5129505;27;20454;-57
2022/11/13 04:30:04;;;;;;;8.10;6.10;;;5.10;99.90;;;;;;5118133;28;20420;-57
2022/11/13 04:32:32;;;;;;;8.90;6.07;;;4.90;99.90;;;;;;5117473;28;20560;-57
2022/11/13 04:34:59;;;;;;;5.60;5.10;;;4.70;99.90;;;;;;5117862;28;20420;-56
2022/11/13 04:37:26;;;;;;;8.00;6.20;;;4.60;99.90;;;;;;5131943;27;20479;-57
2022/11/13 04:39:53;;;;;;;8.48;5.90;;;4.60;99.90;;;;;;5138332;27;20894;-55
2022/11/13 04:45:06;;;;;;;11.00;6.30;;;4.60;99.90;;;;;;5137280;27;20422;-57
2022/11/13 04:47:33;;;;;;;8.88;6.82;;;4.50;99.90;;;;;;5137117;27;20430;-57
2022/11/13 04:50:00;;;;;;;10.75;8.15;;;4.50;99.90;;;;;;5137928;27;20475;-54
2022/11/13 04:52:28;;;;;;;9.55;7.00;;;4.50;99.90;;;;;;5137998;27;20430;-53
2022/11/13 04:54:56;;;;;;;7.80;7.00;;;4.50;99.90;;;;;;5127859;27;20456;-57
2022/11/13 04:57:24;;;;;;;10.18;7.18;;;4.40;99.90;;;;;;5116539;28;20819;-56
2022/11/13 04:59:51;;;;;;;12.35;7.63;;;4.30;99.90;;;;;;5116251;28;20485;-59
2022/11/13 05:02:18;;;;;;;10.83;6.37;;;4.20;99.90;;;;;;5115588;28;20454;-54
2022/11/13 05:04:45;;;;;;;9.80;7.68;;;4.10;99.90;;;;;;5120317;27;20500;-53
2022/11/13 05:07:12;;;;;;;10.25;7.68;;;4.00;99.90;;;;;;5115147;28;20428;-57
2022/11/13 05:09:39;;;;;;;12.25;8.35;;;4.00;99.90;;;;;;5115549;28;20412;-55
2022/11/13 05:12:07;;;;;;;13.32;8.25;;;4.10;99.90;;;;;;5116139;28;20417;-56
2022/11/13 05:14:35;;;;;;;11.15;7.85;;;4.20;99.90;;;;;;5131584;27;20418;-56
2022/11/13 05:17:02;;;;;;;12.43;8.95;;;4.20;99.90;;;;;;5136690;27;20504;-57
2022/11/13 05:19:30;;;;;;;13.70;9.20;;;4.30;99.90;;;;;;5136496;27;20445;-56
2022/11/13 05:21:57;;;;;;;13.18;8.60;;;4.20;99.90;;;;;;5132849;27;20475;-56
2022/11/13 05:24:24;;;;;;;12.15;8.48;;;4.10;99.90;;;;;;5116836;28;20416;-56
2022/11/13 05:26:51;;;;;;;10.70;7.80;;;4.10;99.90;;;;;;5116961;28;20420;-55
2022/11/13 05:29:18;;;;;;;12.27;7.65;;;4.20;99.90;;;;;;5117259;28;20450;-55
2022/11/13 05:31:47;;;;;;;11.55;7.50;;;4.10;99.90;;;;;;5116257;27;20420;-56
2022/11/13 05:34:14;;;;;;;11.00;7.97;;;4.10;99.90;;;;;;5116886;28;20785;-56
2022/11/13 05:36:41;;;;;;;13.25;8.73;;;4.10;99.90;;;;;;5116462;28;20424;-54
2022/11/13 05:39:09;;;;;;;12.90;8.82;;;4.00;99.90;;;;;;5116953;28;20851;-54
2022/11/13 05:41:36;;;;;;;12.38;9.15;;;4.00;99.90;;;;;;5130324;27;20423;-56
2022/11/13 05:44:03;;;;;;;13.73;9.20;;;4.00;99.90;;;;;;5134895;27;20426;-57
2022/11/13 05:46:30;;;;;;;14.82;8.70;;;4.10;99.90;;;;;;5135410;27;20487;-56
2022/11/13 05:49:01;;;;;;;11.27;8.32;;;4.10;99.90;;;;;;5132926;27;20716;-56
2022/11/13 05:51:30;;;;;;;12.80;8.30;;;4.00;99.90;;;;;;5115815;28;21035;-56
2022/11/13 05:53:57;;;;;;;9.55;7.82;;;4.10;99.90;;;;;;5116600;28;20432;-57
2022/11/13 05:56:26;;;;;;;11.37;8.10;;;4.10;99.90;;;;;;5115939;28;20420;-55
2022/11/13 05:58:54;;;;;;;11.80;8.00;;;4.10;99.90;;;;;;5115990;27;20801;-56
2022/11/13 06:01:24;;;;;;;12.30;7.53;;;4.20;99.90;;;;;;5116608;28;20420;-56
2022/11/13 06:03:51;;;;;;;10.73;7.43;;;4.10;99.90;;;;;;5116219;28;20485;-56
2022/11/13 06:06:22;;;;;;;10.27;7.65;;;4.10;99.90;;;;;;5116030;27;20773;-54
2022/11/13 06:08:50;;;;;;;12.38;7.85;;;4.20;99.90;;;;;;5134026;27;20480;-57
2022/11/13 06:11:19;;;;;;;8.45;7.10;;;4.20;99.90;;;;;;5136675;27;20444;-56
2022/11/13 06:13:46;;;;;;;9.77;6.97;;;4.20;99.90;;;;;;5136733;27;20434;-55
2022/11/13 06:16:16;;;;;;;10.90;7.55;;;4.30;99.90;;;;;;5132585;27;20491;-54
2022/11/13 06:18:45;;;;;;;10.15;6.47;;;4.40;99.90;;;;;;5135573;27;20430;-56
2022/11/13 06:21:14;;;;;;;8.68;6.97;;;4.40;99.90;;;;;;5135933;27;20853;-57
2022/11/13 06:23:42;;;;;;;8.40;6.57;;;4.40;99.90;;;;;;5135992;27;20471;-57
2022/11/13 06:26:11;;;;;;;8.98;6.88;;;4.50;99.90;;;;;;5128784;27;20431;-54
2022/11/13 06:28:39;;;;;;;8.70;6.03;;;4.40;99.90;;;;;;5114796;28;20908;-55
2022/11/13 06:31:07;;;;;;;8.38;6.68;;;4.30;99.90;;;;;;5115731;28;20416;-56
2022/11/13 06:33:35;;;;;;;8.52;5.35;;;4.30;99.90;;;;;;5115477;28;20432;-57
2022/11/13 06:36:03;;;;;;;8.55;5.95;;;4.30;99.90;;;;;;5127226;27;20491;-55
2022/11/13 06:38:33;;;;;;;9.75;6.85;;;4.40;99.90;;;;;;5135842;27;20486;-55
2022/11/13 06:41:03;;;;;;;9.27;6.50;;;4.40;99.90;;;;;;5135965;27;20512;-57
2022/11/13 06:43:31;;;;;;;9.95;7.18;;;4.60;99.90;;;;;;5133901;27;20424;-53
2022/11/13 06:45:59;;;;;;;9.77;6.20;;;4.70;99.90;;;;;;5116135;28;20427;-56
2022/11/13 06:48:26;;;;;;;6.53;5.63;;;4.70;99.90;;;;;;5125091;28;20490;-54
2022/11/13 06:50:53;;;;;;;6.30;4.90;;;4.80;99.90;;;;;;5135942;28;20483;-57
2022/11/13 06:53:19;;;;;;;6.28;4.70;;;4.70;99.90;;;;;;5135273;28;20486;-56
2022/11/13 06:55:49;;;;;;;4.88;3.95;;;4.60;99.90;;;;;;5139349;27;20783;-55
2022/11/13 06:58:18;;;;;;;4.55;3.80;;;4.50;99.90;;;;;;5140260;27;20833;-57
2022/11/13 07:00:45;;;;;;;4.97;4.13;;;4.50;99.90;;;;;;5140415;27;20414;-56
2022/11/13 07:03:16;;;;;;;4.63;3.80;;;4.50;99.90;;;;;;5139292;27;20426;-56
2022/11/13 07:05:43;;;;;;;4.65;4.25;;;4.40;99.90;;;;;;5140070;27;20426;-52
2022/11/13 07:08:10;;;;;;;4.53;4.10;;;4.40;99.90;;;;;;5140029;27;20857;-54
2022/11/13 07:10:37;;;;;;;4.47;3.67;;;4.40;99.90;;;;;;5139548;27;20418;-55
2022/11/13 07:13:05;;;;;;;4.43;3.17;;;4.50;99.90;;;;;;5139475;27;20426;-51
2022/11/13 07:15:35;;;;;;;3.40;2.70;;;4.70;99.90;;;;;;5139768;27;20421;-54
2022/11/13 07:18:03;;;;;;;3.20;2.90;;;4.80;99.90;;;;;;5139291;27;20429;-55
2022/11/13 07:20:30;;;;;;;4.10;2.50;;;4.90;99.90;;;;;;5138766;27;20418;-56
2022/11/13 07:22:58;;;;;;;3.30;2.80;;;4.80;99.90;;;;;;5139614;27;20436;-56
2022/11/13 07:25:25;;;;;;;3.00;2.65;;;4.60;99.90;;;;;;5138935;27;20763;-55
2022/11/13 07:27:53;;;;;;;3.22;2.50;;;4.50;99.90;;;;;;5139990;27;20426;-53
2022/11/13 07:30:20;;;;;;;3.15;2.67;;;4.40;99.90;;;;;;5138975;27;20914;-54
2022/11/13 07:32:48;;;;;;;3.88;3.30;;;4.20;99.90;;;;;;5139607;27;20434;-55
2022/11/13 07:35:16;;;;;;;3.63;3.05;;;4.00;99.90;;;;;;5138987;27;20468;-55
2022/11/13 07:37:43;;;;;;;3.50;2.83;;;4.00;99.90;;;;;;5139177;27;20422;-53
2022/11/13 07:40:11;;;;;;;3.40;3.10;;;4.30;99.90;;;;;;5138627;27;20461;-56
2022/11/13 07:42:39;;;;;;;3.20;2.90;;;4.40;99.90;;;;;;5139416;27;20448;-55
2022/11/13 07:45:07;;;;;;;2.93;2.70;;;4.60;99.90;;;;;;5138712;27;20707;-55
2022/11/13 07:47:34;;;;;;;2.50;2.20;;;4.50;99.90;;;;;;5137975;27;20523;-55
2022/11/13 07:50:02;;;;;;;3.63;2.30;;;4.40;99.90;;;;;;5138570;27;20411;-56
2022/11/13 07:52:29;;;;;;;3.00;2.60;;;4.40;99.90;;;;;;5138141;27;20422;-56
2022/11/13 07:54:56;;;;;;;3.45;3.15;;;4.50;99.90;;;;;;5138368;27;20422;-54
2022/11/13 07:57:23;;;;;;;3.33;2.70;;;4.80;99.90;;;;;;5137964;27;20687;-52
2022/11/13 07:59:50;;;;;;;2.92;2.63;;;4.90;99.90;;;;;;5138322;27;20821;-55
2022/11/13 08:02:17;;;;;;;2.53;2.25;;;4.80;99.90;;;;;;5138268;27;20426;-55
2022/11/13 08:04:44;;;;;;;3.30;2.90;;;4.80;99.90;;;;;;5138521;27;20419;-55
2022/11/13 08:07:12;;;;;;;3.05;2.50;;;4.90;99.90;;;;;;5137329;27;20491;-56
2022/11/13 08:09:39;;;;;;;4.50;3.28;;;4.80;99.90;;;;;;5138712;27;20852;-56
2022/11/13 08:12:07;;;;;;;3.85;2.75;;;4.90;99.90;;;;;;5137985;27;20427;-56
2022/11/13 08:14:36;;;;;;;3.20;2.90;;;4.80;99.90;;;;;;5137808;27;20419;-56
2022/11/13 08:17:03;;;;;;;5.22;3.03;;;4.80;99.90;;;;;;5137507;27;20908;-57
2022/11/13 08:19:30;;;;;;;3.33;2.42;;;5.00;99.90;;;;;;5137947;27;20471;-57
2022/11/13 08:21:57;;;;;;;3.15;2.30;;;5.10;99.90;;;;;;5137097;27;20410;-57
2022/11/13 08:24:26;;;;;;;3.30;2.50;;;5.20;99.90;;;;;;5137096;27;20494;-55
2022/11/13 08:26:53;;;;;;;3.30;3.00;;;5.20;99.90;;;;;;5137839;27;20415;-55
2022/11/13 08:29:20;;;;;;;3.60;2.45;;;5.20;99.90;;;;;;5138779;27;20414;-57
2022/11/13 08:31:47;;;;;;;3.08;2.75;;;5.10;99.90;;;;;;5138223;27;20410;-57
2022/11/13 08:34:14;;;;;;;2.90;2.60;;;5.00;99.90;;;;;;5137032;27;20425;-56
2022/11/13 08:36:41;;;;;;;3.25;2.90;;;5.00;99.90;;;;;;5130809;27;20722;-58
2022/11/13 08:39:09;;;;;;;3.55;2.83;;;4.90;99.90;;;;;;5117331;28;20424;-54
2022/11/13 08:41:37;;;;;;;3.60;3.30;;;4.90;99.90;;;;;;5116714;28;20420;-55
2022/11/13 08:44:05;;;;;;;3.20;2.88;;;4.70;99.90;;;;;;5116737;28;20781;-57
2022/11/13 08:46:32;;;;;;;3.60;3.30;;;4.50;99.90;;;;;;5116868;28;20424;-55
2022/11/13 08:48:59;;;;;;;3.63;3.15;;;4.40;99.90;;;;;;5116842;28;20428;-55
2022/11/13 08:51:26;;;;;;;3.60;3.30;;;4.50;99.90;;;;;;5116774;28;20416;-56
2022/11/13 08:53:53;;;;;;;3.30;3.00;;;4.70;99.90;;;;;;5127326;27;20430;-57
2022/11/13 08:56:20;;;;;;;3.28;2.97;;;4.70;99.90;;;;;;5137283;27;20759;-54
2022/11/13 08:58:48;;;;;;;3.55;3.25;;;4.80;99.90;;;;;;5135004;27;20840;-57
2022/11/13 09:01:15;;;;;;;4.63;3.33;;;5.00;99.90;;;;;;5133444;27;20414;-56
2022/11/13 09:03:42;;;;;;;3.60;3.22;;;5.10;99.90;;;;;;5135493;27;20422;-56
2022/11/13 09:06:10;;;;;;;3.90;3.50;;;5.30;99.90;;;;;;5135999;27;20406;-57
2022/11/13 09:08:37;;;;;;;4.57;3.37;;;5.30;99.90;;;;;;5134920;27;20519;-57
2022/11/13 09:11:05;;;;;;;3.77;3.40;;;5.20;99.90;;;;;;5114854;27;20427;-56
2022/11/13 09:13:34;;;;;;;3.30;3.00;;;5.30;99.90;;;;;;5115523;28;20846;-54
2022/11/13 09:16:04;;;;;;;3.63;3.15;;;5.40;99.90;;;;;;5112971;28;20727;-57
2022/11/13 09:18:31;;;;;;;3.47;3.17;;;5.30;99.90;;;;;;5112971;28;20431;-57
2022/11/13 09:21:01;;;;;;;3.40;2.95;;;5.30;99.90;;;;;;5114636;28;20477;-56
2022/11/13 09:23:28;;;;;;;3.28;2.90;;;5.20;99.90;;;;;;5115680;28;20428;-57
2022/11/13 09:25:56;;;;;;;3.33;3.03;;;5.20;99.90;;;;;;5136216;27;20923;-56
2022/11/13 09:28:23;;;;;;;3.70;2.90;;;5.10;99.90;;;;;;5136955;27;20430;-57
2022/11/13 09:30:50;;;;;;;3.10;2.80;;;4.90;99.90;;;;;;5136536;27;20415;-57
2022/11/13 09:33:18;;;;;;;2.97;2.75;;;5.10;99.90;;;;;;5136350;27;20422;-57
2022/11/13 09:35:45;;;;;;;3.80;3.50;;;5.20;99.90;;;;;;5135926;27;20763;-57
2022/11/13 09:38:15;;;;;;;3.92;2.90;;;5.30;99.90;;;;;;5136409;27;20455;-57
2022/11/13 09:40:47;;;;;;;3.90;3.60;;;5.40;99.90;;;;;;5135757;27;20418;-57
2022/11/13 09:43:28;;;;;;;3.90;2.80;;;5.40;99.90;;;;;;5135669;27;20429;-57
2022/11/13 09:46:04;;;;;;;4.30;3.45;;;5.50;99.90;;;;;;5136745;27;20414;-58
2022/11/13 09:48:36;;;;;;;3.33;3.03;;;5.50;99.90;;;;;;5136785;27;20886;-55
2022/11/13 09:51:08;;;;;;;4.10;3.70;;;5.50;99.90;;;;;;5136049;27;20463;-55
2022/11/13 09:53:37;;;;;;;4.68;3.58;;;5.60;99.90;;;;;;5134808;27;20431;-57
2022/11/13 09:56:16;;;;;;;3.37;2.70;;;5.50;99.90;;;;;;5135913;27;20496;-56
2022/11/13 09:58:51;;;;;;;4.60;3.40;;;5.40;99.90;;;;;;5136401;27;20422;-58
2022/11/13 10:01:27;;;;;;;4.05;3.65;;;5.50;99.90;;;;;;5135749;27;20714;-58
2022/11/13 10:04:00;;;;;;;4.00;3.60;;;5.70;99.90;;;;;;5136654;27;20718;-61
2022/11/13 10:06:43;;;;;;;4.30;3.80;;;5.70;99.90;;;;;;5136448;27;20418;-58
2022/11/13 10:09:19;;;;;;;4.25;3.70;;;5.80;99.90;;;;;;5136326;27;20434;-57
2022/11/13 10:11:53;;;;;;;5.30;4.20;;;5.90;99.90;;;;;;5136729;27;20418;-56
2022/11/13 10:14:25;;;;;;;3.90;3.50;;;6.10;99.90;;;;;;5136401;27;20422;-56
2022/11/13 10:16:55;;;;;;;3.33;3.03;;;6.30;99.90;;;;;;5136589;27;20921;-58
2022/11/13 10:19:30;;;;;;;4.03;3.13;;;6.40;99.90;;;;;;5136435;27;20830;-58
2022/11/13 10:22:03;;;;;;;3.90;3.30;;;6.60;99.90;;;;;;5136146;27;20418;-58
2022/11/13 10:24:36;;;;;;;3.45;2.90;;;6.70;99.90;;;;;;5135853;27;20411;-57
2022/11/13 10:27:09;;;;;;;3.95;3.65;;;6.70;99.90;;;;;;5134455;27;20425;-58
2022/11/13 10:29:36;;;;;;;4.70;4.20;;;6.90;94.30;;;;;;5133885;27;20771;-58
2022/11/13 10:32:17;;;;;;;3.97;3.30;;;6.90;69.50;;;;;;5134451;27;20467;-57
2022/11/13 10:34:49;;;;;;;3.70;3.40;;;6.80;84.90;;;;;;5135458;27;20475;-58
2022/11/13 10:37:31;;;;;;;5.32;4.00;;;6.90;90.30;;;;;;5135282;27;20425;-58
2022/11/13 10:39:58;;;;;;;3.55;3.25;;;6.90;79.80;;;;;;5135274;27;20414;-59
2022/11/13 10:42:28;;;;;;;4.07;3.58;;;6.80;91.30;;;;;;5135102;27;20495;-57
2022/11/13 10:44:57;;;;;;;4.00;3.60;;;6.90;95.10;;;;;;5135317;28;20441;-58
2022/11/13 10:47:26;;;;;;;4.10;3.70;;;6.90;94.80;;;;;;5135901;27;20509;-58
2022/11/13 10:49:57;;;;;;;4.70;3.80;;;7.10;76.20;;;;;;5131833;28;20446;-56
2022/11/13 10:52:26;;;;;;;3.67;3.38;;;7.20;83.80;;;;;;5122618;28;20430;-57
2022/11/13 10:55:12;;;;;;;4.28;3.70;;;7.40;67.60;;;;;;5135136;28;21066;-58
2022/11/13 10:57:39;;;;;;;4.70;4.30;;;7.50;65.00;;;;;;5132471;28;20490;-59
2022/11/13 11:00:21;;;;;;;4.32;3.92;;;7.50;59.50;;;;;;5135226;28;20471;-57
2022/11/13 11:02:49;;;;;;;4.63;4.22;;;7.60;56.50;;;;;;5135019;28;20897;-57
2022/11/13 11:05:20;;;;;;;4.00;3.60;;;7.80;48.50;;;;;;5134934;28;20506;-57
2022/11/13 11:07:47;;;;;;;4.63;3.75;;;7.90;28.50;;;;;;5135548;27;20426;-57
2022/11/13 11:10:26;;;;;;;4.30;3.67;;;7.90;34.30;;;;;;5135357;28;20421;-57
2022/11/13 11:12:53;;;;;;;3.95;3.65;;;8.00;35.20;;;;;;5133887;27;20733;-57
2022/11/13 11:15:25;;;;;;;5.05;4.05;;;7.90;31.30;;;;;;5135193;28;20433;-57
2022/11/13 11:17:56;;;;;;;5.18;4.68;;;7.90;48.50;;;;;;5135386;27;20483;-57
2022/11/13 11:20:38;;;;;;;4.40;4.00;;;7.90;42.40;;;;;;5135567;28;20557;-58
2022/11/13 11:23:18;;;;;;;3.85;3.45;;;8.00;51.10;;;;;;5135125;28;20918;-58
2022/11/13 11:25:52;;;;;;;4.25;3.33;;;8.10;50.60;;;;;;5135276;28;20410;-58
2022/11/13 11:28:31;;;;;;;4.63;4.22;;;8.20;45.20;;;;;;5133627;27;20455;-58
2022/11/13 11:31:05;;;;;;;4.75;3.58;;;8.30;28.00;;;;;;5134231;28;20413;-57
2022/11/13 11:33:36;;;;;;;4.35;3.55;;;8.30;38.60;;;;;;5133923;28;20487;-57
2022/11/13 11:36:15;;;;;;;4.05;3.70;;;8.30;39.70;;;;;;5134152;28;20434;-58
2022/11/13 11:38:50;;;;;;;4.10;3.70;;;8.40;44.10;;;;;;5134870;27;20426;-57
2022/11/13 11:41:25;;;;;;;5.88;4.38;;;8.60;24.70;;;;;;5135559;27;20472;-55
2022/11/13 11:44:01;;;;;;;4.45;3.50;;;8.60;16.20;;;;;;5137843;27;20434;-57
2022/11/13 11:46:29;;;;;;;4.30;3.90;;;8.70;29.40;;;;;;5138240;27;20864;-57
2022/11/13 11:48:59;;;;;;;4.55;4.15;;;8.80;22.30;;;;;;5138924;27;20469;-57
2022/11/13 11:51:32;;;;;;;4.57;4.18;;;8.90;10.50;;;;;;5139017;27;20423;-58
2022/11/13 11:54:15;;;;;;;4.15;3.60;;;9.00;5.30;;;;;;5136655;27;20754;-57
2022/11/13 11:56:46;;;;;;;6.03;4.10;;;9.10;8.20;;;;;;5138714;27;20414;-58
2022/11/13 11:59:30;;;;;;;4.50;4.10;;;9.10;1.00;;;;;;5136972;27;20414;-58
2022/11/13 12:02:40;;;;;;;5.43;4.40;;;9.10;4.30;;;;;;5137243;27;20418;-57
2022/11/13 12:05:18;;;;;;;4.43;4.10;;;9.20;11.70;;;;;;5136278;27;20414;-57
2022/11/13 12:07:57;;;;;;;3.83;3.45;;;9.20;11.80;;;;;;5137203;27;20422;-57
2022/11/13 12:10:30;;;;;;;4.55;4.15;;;9.30;1.00;;;;;;5137788;27;20471;-57
2022/11/13 12:13:22;;;;;;;4.55;4.15;;;9.30;1.00;;;;;;5137144;27;20430;-56
2022/11/13 12:15:57;;;;;;;5.20;4.57;;;9.40;5.10;;;;;;5120783;27;20642;-59
2022/11/13 12:18:35;;;;;;;4.15;3.65;;;9.30;1.00;;;;;;5137170;27;20501;-59
2022/11/13 12:21:19;;;;;;;4.97;4.47;;;9.30;11.10;;;;;;5137816;27;20426;-59
2022/11/13 12:24:00;;;;;;;4.15;3.60;;;9.40;12.10;;;;;;5136796;27;20426;-60
2022/11/13 12:26:30;;;;;;;4.13;3.72;;;9.50;6.80;;;;;;5136740;27;20457;-57
2022/11/13 12:29:20;;;;;;;4.20;3.70;;;9.60;1.00;;;;;;5138231;27;20511;-59
2022/11/13 12:31:56;;;;;;;4.88;4.47;;;9.60;1.00;;;;;;5137729;27;20890;-59
2022/11/13 12:34:28;;;;;;;3.80;3.20;;;9.70;1.00;;;;;;5137502;27;20724;-58
2022/11/13 12:36:56;;;;;;;5.50;4.68;;;9.80;1.00;;;;;;5137607;27;20414;-59
2022/11/13 12:39:42;;;;;;;4.27;3.97;;;9.80;1.00;;;;;;5136843;27;20414;-59
2022/11/13 12:42:19;;;;;;;5.20;4.50;;;9.90;1.00;;;;;;5136908;27;20491;-59
2022/11/13 12:44:54;;;;;;;4.00;3.50;;;10.00;1.00;;;;;;5136235;27;20429;-59
2022/11/13 12:47:22;;;;;;;4.43;3.60;;;10.10;1.00;;;;;;5136581;27;20429;-58
2022/11/13 12:49:59;;;;;;;4.60;4.22;;;10.10;1.00;;;;;;5136759;27;20475;-59
2022/11/13 12:52:26;;;;;;;4.63;3.97;;;10.10;1.00;;;;;;5136738;27;20848;-59
2022/11/13 12:55:05;;;;;;;4.57;3.88;;;10.10;1.00;;;;;;5135542;27;20426;-58
2022/11/13 12:57:32;;;;;;;4.25;3.80;;;10.20;1.00;;;;;;5134807;27;20429;-58
2022/11/13 13:00:12;;;;;;;5.15;4.15;;;10.20;1.00;;;;;;5126855;27;20452;-58
2022/11/13 13:02:52;;;;;;;4.40;3.60;;;10.10;1.00;;;;;;5128080;27;20501;-57
2022/11/13 13:05:31;;;;;;;4.35;3.95;;;10.20;1.00;;;;;;5114677;28;20435;-58
2022/11/13 13:08:31;;;;;;;4.47;4.07;;;10.30;1.00;;;;;;5115408;28;20420;-57
2022/11/13 13:11:12;;;;;;;6.23;5.30;;;10.30;1.00;;;;;;5115668;28;20444;-58